Time;durP1;ratioP1;P1;durP2;ratioP2;P2;SDS_P1;SDS_P2;PMS_P1;PMS_P2;Temp;Humidity;BMP_temperature;BMP_pressure;BME280_temperature;BME280_humidity;BME280_pressure;Samples;Min_cycle;Max_cycle;Signal;HPM_P1;HPM_P2
2022/05/19 00:01:02;;;;;;;35.78;28.50;;;19.00;99.90;;;;;;5030056;28;20053;-66
2022/05/19 00:03:28;;;;;;;34.90;29.15;;;19.00;99.90;;;;;;5028263;28;20047;-66
2022/05/19 00:05:55;;;;;;;37.30;28.15;;;18.90;99.90;;;;;;5046117;28;20105;-66
2022/05/19 00:08:21;;;;;;;36.35;26.80;;;18.90;99.90;;;;;;5026605;28;20076;-66
2022/05/19 00:10:47;;;;;;;35.80;28.42;;;18.80;99.90;;;;;;5041715;28;20109;-67
2022/05/19 00:13:13;;;;;;;37.45;27.38;;;18.70;99.90;;;;;;5012824;28;20045;-66
2022/05/19 00:15:39;;;;;;;35.22;27.08;;;18.80;99.90;;;;;;5040447;28;20106;-66
2022/05/19 00:18:05;;;;;;;32.80;26.23;;;18.60;99.90;;;;;;5046012;28;20091;-66
2022/05/19 00:20:30;;;;;;;35.55;26.27;;;18.60;99.90;;;;;;5026495;28;20072;-66
2022/05/19 00:22:56;;;;;;;37.97;27.58;;;18.60;99.90;;;;;;5027672;28;20053;-66
2022/05/19 00:25:22;;;;;;;29.60;25.35;;;18.60;99.90;;;;;;5008085;28;20129;-66
2022/05/19 00:27:48;;;;;;;32.10;27.42;;;18.60;99.90;;;;;;5044991;28;20047;-66
2022/05/19 00:30:14;;;;;;;36.50;28.40;;;18.60;99.90;;;;;;5034438;28;20041;-66
2022/05/19 00:32:39;;;;;;;35.92;28.65;;;18.60;99.90;;;;;;5027293;28;20072;-66
2022/05/19 00:35:06;;;;;;;33.42;26.25;;;18.60;99.90;;;;;;5024408;28;20553;-66
2022/05/19 00:37:32;;;;;;;29.67;25.15;;;18.60;99.90;;;;;;5024236;28;20050;-66
2022/05/19 00:39:58;;;;;;;36.13;27.35;;;18.50;99.90;;;;;;5013760;28;20057;-66
2022/05/19 00:45:08;;;;;;;34.17;29.70;;;18.50;99.90;;;;;;5027799;28;20099;-66
2022/05/19 00:47:39;;;;;;;35.65;27.33;;;18.50;99.90;;;;;;5022789;28;20077;-66
2022/05/19 00:50:09;;;;;;;32.90;25.92;;;18.40;99.90;;;;;;5028517;28;20045;-66
2022/05/19 00:52:40;;;;;;;37.03;28.35;;;18.30;99.90;;;;;;5030711;28;20068;-66
2022/05/19 00:55:17;;;;;;;34.13;29.05;;;18.30;99.90;;;;;;5031868;28;20120;-66
2022/05/19 00:57:59;;;;;;;30.67;27.17;;;18.30;99.90;;;;;;5024089;28;20066;-66
2022/05/19 01:00:25;;;;;;;36.80;28.42;;;18.20;99.90;;;;;;5044810;28;20053;-66
2022/05/19 01:02:58;;;;;;;35.15;28.60;;;18.10;99.90;;;;;;5027598;28;20043;-66
2022/05/19 01:05:49;;;;;;;38.17;29.63;;;18.00;99.90;;;;;;5024706;28;20112;-66
2022/05/19 01:08:23;;;;;;;37.17;28.27;;;18.00;99.90;;;;;;5012176;28;20061;-66
2022/05/19 01:10:50;;;;;;;33.28;29.27;;;17.90;99.90;;;;;;5026246;28;20049;-67
2022/05/19 01:13:16;;;;;;;38.67;30.33;;;17.80;99.90;;;;;;5025950;28;20084;-66
2022/05/19 01:15:50;;;;;;;38.42;30.85;;;17.80;99.90;;;;;;5028175;28;20052;-66
2022/05/19 01:18:17;;;;;;;38.97;30.50;;;17.70;99.90;;;;;;5028590;28;20054;-66
2022/05/19 01:20:45;;;;;;;36.03;31.77;;;17.60;99.90;;;;;;5032389;28;20117;-66
2022/05/19 01:23:38;;;;;;;37.15;30.23;;;17.60;99.90;;;;;;5026641;28;20096;-66
2022/05/19 01:26:16;;;;;;;42.20;32.67;;;17.60;99.90;;;;;;5027315;28;20072;-66
2022/05/19 01:28:44;;;;;;;41.22;35.85;;;17.50;99.90;;;;;;5027789;28;20041;-66
2022/05/19 01:31:44;;;;;;;44.42;34.95;;;17.60;99.90;;;;;;5027849;28;20101;-66
2022/05/19 01:34:10;;;;;;;47.25;37.03;;;17.40;99.90;;;;;;5024463;28;20042;-66
2022/05/19 01:36:36;;;;;;;48.53;39.15;;;17.30;99.90;;;;;;5027753;28;20056;-66
2022/05/19 01:39:28;;;;;;;51.13;42.92;;;17.30;99.90;;;;;;5044656;28;20124;-67
2022/05/19 01:42:29;;;;;;;52.05;42.15;;;17.20;99.90;;;;;;5015894;28;20119;-66
2022/05/19 01:45:04;;;;;;;55.67;45.85;;;17.20;99.90;;;;;;5029112;28;20057;-66
2022/05/19 01:47:37;;;;;;;52.60;43.28;;;17.20;99.90;;;;;;5029629;28;20049;-66
2022/05/19 01:50:14;;;;;;;54.85;43.30;;;17.30;99.90;;;;;;5045073;28;20900;-66
2022/05/19 01:52:52;;;;;;;52.10;42.50;;;17.30;99.90;;;;;;5030202;28;20054;-66
2022/05/19 01:55:27;;;;;;;47.97;39.00;;;17.20;99.90;;;;;;5025573;28;20053;-66
2022/05/19 01:57:59;;;;;;;53.03;42.22;;;17.00;99.90;;;;;;5044171;28;20048;-66
2022/05/19 02:00:27;;;;;;;50.42;42.15;;;17.00;99.90;;;;;;5030296;28;20079;-66
2022/05/19 02:03:20;;;;;;;52.00;44.30;;;17.10;99.90;;;;;;5028594;28;20042;-66
2022/05/19 02:05:51;;;;;;;55.60;42.97;;;17.00;99.90;;;;;;5027855;28;20084;-66
2022/05/19 02:08:27;;;;;;;49.85;42.88;;;17.00;99.90;;;;;;5032600;28;20068;-65
2022/05/19 02:10:55;;;;;;;56.25;43.58;;;17.00;99.90;;;;;;5043909;28;20053;-66
2022/05/19 02:13:22;;;;;;;57.45;47.03;;;16.80;99.90;;;;;;5028794;28;20049;-66
2022/05/19 02:15:50;;;;;;;59.33;44.03;;;16.90;99.90;;;;;;5022980;28;20045;-66
2022/05/19 02:18:20;;;;;;;53.45;43.63;;;16.90;99.90;;;;;;5009533;28;20383;-66
2022/05/19 02:20:47;;;;;;;50.78;42.40;;;16.80;99.90;;;;;;5010283;28;20048;-66
2022/05/19 02:23:15;;;;;;;50.70;41.40;;;16.70;99.90;;;;;;5028091;28;20084;-66
2022/05/19 02:25:45;;;;;;;56.50;43.85;;;16.70;99.90;;;;;;5026388;28;20080;-66
2022/05/19 02:28:31;;;;;;;52.95;45.80;;;16.70;99.90;;;;;;5036379;28;20071;-66
2022/05/19 02:30:58;;;;;;;56.58;43.72;;;16.70;99.90;;;;;;5031873;28;20056;-66
2022/05/19 02:33:24;;;;;;;54.95;46.25;;;16.80;99.90;;;;;;5034401;28;20049;-66
2022/05/19 02:35:50;;;;;;;58.10;43.85;;;16.70;99.90;;;;;;5032571;28;20056;-66
2022/05/19 02:38:18;;;;;;;53.13;44.58;;;16.60;99.90;;;;;;5047940;28;20045;-66
2022/05/19 02:40:44;;;;;;;52.05;44.55;;;16.60;99.90;;;;;;5044038;28;20046;-66
2022/05/19 02:43:12;;;;;;;51.72;42.72;;;16.50;99.90;;;;;;5042827;28;20133;-66
2022/05/19 02:45:38;;;;;;;50.85;45.17;;;16.50;99.90;;;;;;5044128;28;20108;-66
2022/05/19 02:48:06;;;;;;;51.80;44.15;;;16.50;99.90;;;;;;5028808;28;20615;-66
2022/05/19 02:50:32;;;;;;;55.67;45.85;;;16.50;99.90;;;;;;5044918;28;20073;-66
2022/05/19 02:52:58;;;;;;;57.17;46.10;;;16.50;99.90;;;;;;5047838;28;20129;-66
2022/05/19 02:55:24;;;;;;;63.28;48.90;;;16.50;99.90;;;;;;5048482;28;20050;-66
2022/05/19 02:57:51;;;;;;;57.15;47.60;;;16.60;99.90;;;;;;5046544;28;20045;-66
2022/05/19 03:00:22;;;;;;;60.42;48.30;;;16.70;99.90;;;;;;5030194;28;20132;-66
2022/05/19 03:02:48;;;;;;;59.15;48.88;;;16.60;99.90;;;;;;5028587;28;20107;-66
2022/05/19 03:05:18;;;;;;;59.50;48.75;;;16.60;99.90;;;;;;5047082;28;20081;-66
2022/05/19 03:07:43;;;;;;;63.95;50.50;;;16.40;99.90;;;;;;5040421;28;20049;-66
2022/05/19 03:10:10;;;;;;;60.95;49.75;;;16.50;99.90;;;;;;5044070;28;20092;-67
2022/05/19 03:12:36;;;;;;;73.78;56.35;;;16.50;99.90;;;;;;5043204;28;20093;-66
2022/05/19 03:15:03;;;;;;;70.22;54.15;;;16.50;99.90;;;;;;5028587;28;20041;-66
2022/05/19 03:17:29;;;;;;;67.22;51.42;;;16.70;99.90;;;;;;5028497;28;20073;-66
2022/05/19 03:19:55;;;;;;;66.10;53.00;;;16.70;99.90;;;;;;5024538;28;20062;-66
2022/05/19 03:22:22;;;;;;;65.78;51.85;;;16.60;99.90;;;;;;5039226;28;20042;-66
2022/05/19 03:24:48;;;;;;;67.07;51.50;;;16.60;99.90;;;;;;5044963;28;20056;-66
2022/05/19 03:27:14;;;;;;;69.88;51.80;;;16.60;99.90;;;;;;5044940;28;20044;-66
2022/05/19 03:29:40;;;;;;;71.57;53.67;;;16.70;99.90;;;;;;5023384;28;20049;-66
2022/05/19 03:32:06;;;;;;;69.50;52.03;;;16.70;99.90;;;;;;5032345;28;20401;-66
2022/05/19 03:34:31;;;;;;;79.75;55.60;;;16.70;99.90;;;;;;5026378;28;20057;-66
2022/05/19 03:37:01;;;;;;;65.55;52.38;;;16.80;99.90;;;;;;5026855;28;20053;-66
2022/05/19 03:39:26;;;;;;;63.80;50.38;;;16.80;99.90;;;;;;5024166;28;20069;-66
2022/05/19 03:41:52;;;;;;;71.07;54.83;;;16.70;99.90;;;;;;5027660;28;20085;-66
2022/05/19 03:44:18;;;;;;;68.30;52.70;;;16.70;99.90;;;;;;5028984;28;20050;-66
2022/05/19 03:46:43;;;;;;;70.05;54.75;;;16.70;99.90;;;;;;5029063;28;20053;-66
2022/05/19 03:49:11;;;;;;;67.80;53.00;;;16.80;99.90;;;;;;5032181;28;20044;-66
2022/05/19 03:51:37;;;;;;;66.55;52.72;;;16.80;99.90;;;;;;5046333;28;20097;-66
2022/05/19 03:54:03;;;;;;;65.82;51.97;;;16.70;99.90;;;;;;5030438;28;20057;-66
2022/05/19 03:56:29;;;;;;;67.13;54.13;;;16.80;99.90;;;;;;5025253;28;20060;-67
2022/05/19 03:58:54;;;;;;;71.20;53.80;;;16.80;99.90;;;;;;5043405;28;20045;-67
2022/05/19 04:01:21;;;;;;;66.93;51.55;;;16.70;99.90;;;;;;5046319;28;20041;-67
2022/05/19 04:03:47;;;;;;;71.65;56.15;;;16.70;99.90;;;;;;5021120;28;20053;-67
2022/05/19 04:06:13;;;;;;;70.65;55.17;;;16.80;99.90;;;;;;5041961;28;20041;-67
2022/05/19 04:08:39;;;;;;;65.35;53.78;;;16.80;99.90;;;;;;5028212;28;20045;-67
2022/05/19 04:11:05;;;;;;;65.60;54.70;;;16.60;99.90;;;;;;5028950;28;20057;-67
2022/05/19 04:13:30;;;;;;;70.80;57.35;;;16.90;99.90;;;;;;5037500;28;20053;-67
2022/05/19 04:15:56;;;;;;;70.72;54.97;;;16.70;99.90;;;;;;5033807;28;20055;-67
2022/05/19 04:18:22;;;;;;;67.07;53.17;;;16.60;99.90;;;;;;5045501;28;20046;-67
2022/05/19 04:20:48;;;;;;;68.30;53.55;;;16.50;99.90;;;;;;5048674;28;20042;-67
2022/05/19 04:23:14;;;;;;;65.50;53.13;;;16.40;99.90;;;;;;5047423;28;20045;-67
2022/05/19 04:25:40;;;;;;;65.65;53.20;;;16.50;99.90;;;;;;5031902;28;20060;-67
2022/05/19 04:28:06;;;;;;;62.25;50.28;;;16.50;99.90;;;;;;5027646;28;20077;-67
2022/05/19 04:30:33;;;;;;;67.95;52.05;;;16.50;99.90;;;;;;5028135;28;20034;-67
2022/05/19 04:32:58;;;;;;;70.18;55.60;;;16.60;99.90;;;;;;5045601;28;20041;-67
2022/05/19 04:35:24;;;;;;;68.25;53.63;;;16.50;99.90;;;;;;5027096;28;20056;-67
2022/05/19 04:37:51;;;;;;;65.82;54.33;;;16.50;99.90;;;;;;5025359;28;20045;-67
2022/05/19 04:40:18;;;;;;;64.90;53.38;;;16.50;99.90;;;;;;4998750;28;20147;-65
2022/05/19 04:42:44;;;;;;;63.78;51.88;;;16.70;99.90;;;;;;5026605;28;20315;-66
2022/05/19 04:45:13;;;;;;;67.32;52.97;;;16.60;99.90;;;;;;5030610;28;20081;-66
2022/05/19 04:47:38;;;;;;;67.47;53.00;;;16.70;99.90;;;;;;5058089;28;20551;-65
2022/05/19 04:50:05;;;;;;;65.63;53.65;;;16.80;99.90;;;;;;4981319;28;20096;-65
2022/05/19 04:52:31;;;;;;;65.63;51.40;;;16.90;99.90;;;;;;5010805;28;20143;-65
2022/05/19 04:54:57;;;;;;;67.18;52.35;;;16.90;99.90;;;;;;5018574;28;20069;-69
2022/05/19 04:57:23;;;;;;;59.17;50.20;;;17.10;99.90;;;;;;5018207;28;20507;-70
2022/05/19 04:59:48;;;;;;;66.25;52.95;;;17.00;99.90;;;;;;5035029;28;20037;-68
2022/05/19 05:02:14;;;;;;;57.50;48.92;;;17.20;99.90;;;;;;5042734;28;20366;-69
2022/05/19 05:04:40;;;;;;;62.63;50.17;;;17.30;99.90;;;;;;5037748;28;20075;-69
2022/05/19 05:07:06;;;;;;;55.67;46.80;;;17.30;99.90;;;;;;5026583;28;20068;-70
2022/05/19 05:09:32;;;;;;;55.20;46.40;;;17.40;99.90;;;;;;5001847;28;20044;-69
2022/05/19 05:11:58;;;;;;;58.35;46.45;;;17.50;99.90;;;;;;5024598;28;20057;-70
2022/05/19 05:14:23;;;;;;;54.78;45.38;;;17.50;99.90;;;;;;4986429;28;20033;-70
2022/05/19 05:16:52;;;;;;;59.83;46.92;;;17.50;99.90;;;;;;5005254;28;20057;-68
2022/05/19 05:19:21;;;;;;;60.20;47.20;;;17.50;99.90;;;;;;5051521;28;20050;-68
2022/05/19 05:21:48;;;;;;;56.15;47.40;;;17.50;99.90;;;;;;5010202;28;20104;-68
2022/05/19 05:24:14;;;;;;;56.08;44.25;;;17.40;99.90;;;;;;5021390;28;20045;-69
2022/05/19 05:26:39;;;;;;;51.58;42.45;;;17.60;99.90;;;;;;5007338;28;20056;-67
2022/05/19 05:29:05;;;;;;;46.92;39.10;;;17.70;99.90;;;;;;5019839;28;20045;-67
2022/05/19 05:31:31;;;;;;;40.65;35.72;;;17.70;99.90;;;;;;5019745;28;20452;-67
2022/05/19 05:33:57;;;;;;;44.85;38.08;;;17.90;99.90;;;;;;5024401;28;20045;-68
2022/05/19 05:36:23;;;;;;;44.75;36.00;;;18.00;99.90;;;;;;5018248;28;20071;-66
2022/05/19 05:38:49;;;;;;;42.22;35.20;;;18.10;99.90;;;;;;5002989;28;20049;-66
2022/05/19 05:41:16;;;;;;;37.20;32.65;;;18.10;99.90;;;;;;5008979;28;20309;-65
2022/05/19 05:43:42;;;;;;;38.08;33.42;;;18.20;99.90;;;;;;5051108;28;20058;-68
2022/05/19 05:46:14;;;;;;;37.17;32.58;;;18.30;99.90;;;;;;5008519;28;20041;-66
2022/05/19 05:48:41;;;;;;;39.55;31.92;;;18.50;99.90;;;;;;5001334;28;20472;-66
2022/05/19 05:51:08;;;;;;;36.20;29.27;;;18.40;99.90;;;;;;5007905;28;20140;-65
2022/05/19 05:53:35;;;;;;;36.47;29.77;;;18.70;99.90;;;;;;5045650;28;20049;-66
2022/05/19 05:56:02;;;;;;;34.83;29.75;;;18.80;99.90;;;;;;5007718;28;20600;-65
2022/05/19 05:58:28;;;;;;;32.47;28.98;;;18.90;99.90;;;;;;5048590;28;20049;-65
2022/05/19 06:00:53;;;;;;;32.65;28.98;;;19.00;99.90;;;;;;5012326;28;20586;-65
2022/05/19 06:03:19;;;;;;;31.52;28.17;;;19.20;99.90;;;;;;5023183;28;20041;-64
2022/05/19 06:05:45;;;;;;;32.30;27.42;;;19.30;99.90;;;;;;5017977;28;20111;-65
2022/05/19 06:08:11;;;;;;;32.42;28.90;;;19.40;99.90;;;;;;5034903;28;20494;-66
2022/05/19 06:10:37;;;;;;;30.20;26.65;;;19.60;99.90;;;;;;5016021;28;20044;-66
2022/05/19 06:13:03;;;;;;;31.27;26.27;;;19.70;99.90;;;;;;5033473;28;20057;-65
2022/05/19 06:15:29;;;;;;;29.35;24.45;;;19.80;99.90;;;;;;5013288;28;20321;-65
2022/05/19 06:17:54;;;;;;;29.70;25.48;;;19.70;99.90;;;;;;5024419;28;20107;-65
2022/05/19 06:20:21;;;;;;;28.73;25.63;;;19.80;99.90;;;;;;5032012;28;20046;-66
2022/05/19 06:22:47;;;;;;;27.73;24.10;;;19.90;99.90;;;;;;5053558;28;20034;-65
2022/05/19 06:25:16;;;;;;;28.20;22.58;;;19.90;99.90;;;;;;5012155;28;20051;-66
2022/05/19 06:27:42;;;;;;;24.58;20.85;;;20.10;99.90;;;;;;5024480;28;20064;-65
2022/05/19 06:30:09;;;;;;;22.48;19.38;;;20.30;99.90;;;;;;4999003;28;20073;-66
2022/05/19 06:32:39;;;;;;;21.25;18.52;;;20.40;99.90;;;;;;5039973;28;20084;-65
2022/05/19 06:35:06;;;;;;;24.52;18.80;;;20.60;99.90;;;;;;5021729;28;20430;-66
2022/05/19 06:37:32;;;;;;;19.13;16.73;;;20.60;99.90;;;;;;5028287;28;20107;-65
2022/05/19 06:39:57;;;;;;;21.17;16.30;;;20.70;99.90;;;;;;5008660;28;20046;-65
2022/05/19 06:42:23;;;;;;;20.83;16.70;;;20.70;99.90;;;;;;5027651;28;20104;-66
2022/05/19 06:44:50;;;;;;;18.75;15.02;;;20.80;99.90;;;;;;5021185;28;20088;-65
2022/05/19 06:47:16;;;;;;;23.05;15.77;;;20.80;99.90;;;;;;5010639;28;20089;-66
2022/05/19 06:49:45;;;;;;;18.88;14.43;;;20.70;99.90;;;;;;5021664;28;20076;-66
2022/05/19 06:52:16;;;;;;;19.93;15.77;;;20.90;99.90;;;;;;5021571;28;20046;-65
2022/05/19 06:54:51;;;;;;;19.35;15.65;;;20.90;99.90;;;;;;5021336;28;20342;-66
2022/05/19 06:57:18;;;;;;;16.15;14.40;;;20.80;99.90;;;;;;5011839;28;20313;-66
2022/05/19 06:59:44;;;;;;;18.20;14.07;;;21.00;99.90;;;;;;4995611;28;20037;-66
2022/05/19 07:02:10;;;;;;;18.20;14.98;;;21.00;99.90;;;;;;5004463;28;20069;-66
2022/05/19 07:04:37;;;;;;;16.58;14.77;;;21.10;99.90;;;;;;5049112;28;20107;-66
2022/05/19 07:07:04;;;;;;;17.92;15.27;;;21.00;99.90;;;;;;5042299;28;20052;-66
2022/05/19 07:09:31;;;;;;;21.10;15.32;;;21.10;99.90;;;;;;5009948;28;20111;-66
2022/05/19 07:11:57;;;;;;;19.15;16.08;;;21.00;99.90;;;;;;5001723;28;20077;-66
2022/05/19 07:14:23;;;;;;;18.92;15.70;;;21.20;99.90;;;;;;5027122;28;20080;-66
2022/05/19 07:16:49;;;;;;;20.83;16.38;;;21.20;99.90;;;;;;5020195;28;20060;-66
2022/05/19 07:22:01;;;;;;;20.33;16.02;;;21.10;99.90;;;;;;5021550;28;20342;-66
2022/05/19 07:24:26;;;;;;;18.90;16.70;;;21.20;99.90;;;;;;5024404;28;20049;-66
2022/05/19 07:26:54;;;;;;;19.90;15.80;;;21.50;99.90;;;;;;5026785;28;20521;-66
2022/05/19 07:29:21;;;;;;;17.02;15.13;;;21.60;99.90;;;;;;5016404;28;20053;-65
2022/05/19 07:31:49;;;;;;;18.58;16.23;;;21.50;99.90;;;;;;5010167;28;20105;-66
2022/05/19 07:34:18;;;;;;;18.58;16.67;;;21.50;99.90;;;;;;5011387;28;20107;-66
2022/05/19 07:36:44;;;;;;;19.15;17.10;;;21.60;99.90;;;;;;5021434;28;20076;-66
2022/05/19 07:39:11;;;;;;;18.70;16.23;;;21.60;99.90;;;;;;5007794;28;20739;-66
2022/05/19 07:41:38;;;;;;;17.80;15.88;;;21.60;99.90;;;;;;5038212;28;20060;-65
2022/05/19 07:44:04;;;;;;;18.83;15.35;;;21.60;99.90;;;;;;5025265;28;20041;-66
2022/05/19 07:46:30;;;;;;;21.05;16.92;;;21.40;99.90;;;;;;5018870;28;20057;-66
2022/05/19 07:48:57;;;;;;;18.45;16.45;;;21.50;99.90;;;;;;5028320;28;20050;-66
2022/05/19 07:51:25;;;;;;;23.15;16.13;;;21.40;99.90;;;;;;5037528;28;20060;-66
2022/05/19 07:53:51;;;;;;;20.60;17.75;;;21.30;99.90;;;;;;5029862;28;20041;-67
2022/05/19 07:56:18;;;;;;;21.40;17.30;;;21.40;99.90;;;;;;5018723;28;20059;-66
2022/05/19 07:58:45;;;;;;;22.00;17.50;;;21.20;99.90;;;;;;5031647;28;20042;-66
2022/05/19 08:01:11;;;;;;;20.17;15.40;;;21.00;99.90;;;;;;5011394;28;20425;-66
2022/05/19 08:03:37;;;;;;;30.50;20.50;;;21.00;99.90;;;;;;5011580;28;20105;-66
2022/05/19 08:06:04;;;;;;;21.92;18.02;;;20.90;99.90;;;;;;5013924;28;20068;-66
2022/05/19 08:08:29;;;;;;;20.98;18.27;;;20.80;99.90;;;;;;5033190;28;20065;-66
2022/05/19 08:10:57;;;;;;;22.77;19.58;;;20.90;99.90;;;;;;5010982;28;20037;-66
2022/05/19 08:16:07;;;;;;;25.00;19.83;;;20.50;99.90;;;;;;4997092;28;20053;-67
2022/05/19 08:18:33;;;;;;;23.85;20.40;;;20.50;99.90;;;;;;5013754;28;20056;-68
2022/05/19 08:21:02;;;;;;;23.00;19.20;;;20.40;99.90;;;;;;4994962;28;20053;-66
2022/05/19 08:23:31;;;;;;;28.23;22.80;;;20.40;99.90;;;;;;5014295;28;20056;-67
2022/05/19 08:25:57;;;;;;;31.48;24.00;;;20.40;99.90;;;;;;4995029;28;20084;-67
2022/05/19 08:28:29;;;;;;;24.55;21.95;;;20.30;99.90;;;;;;5013420;28;20061;-67
2022/05/19 08:31:01;;;;;;;24.60;21.90;;;20.30;99.90;;;;;;4990942;28;20061;-67
2022/05/19 08:33:27;;;;;;;26.02;22.83;;;20.20;99.90;;;;;;5013950;28;20129;-67
2022/05/19 08:35:54;;;;;;;29.00;25.90;;;20.20;99.90;;;;;;5008187;28;20048;-67
2022/05/19 08:38:21;;;;;;;29.17;25.92;;;20.10;99.90;;;;;;5014308;28;20101;-67
2022/05/19 08:41:00;;;;;;;31.33;27.92;;;20.10;99.90;;;;;;4982454;28;20100;-67
2022/05/19 08:43:33;;;;;;;29.90;26.48;;;20.20;99.90;;;;;;5014680;28;20054;-67
2022/05/19 08:46:02;;;;;;;27.83;24.55;;;20.30;99.90;;;;;;5012326;28;20084;-66
2022/05/19 08:48:29;;;;;;;31.73;27.83;;;20.30;99.90;;;;;;5014473;28;20418;-66
2022/05/19 08:50:56;;;;;;;31.83;27.48;;;20.30;99.90;;;;;;4991739;28;20054;-67
2022/05/19 08:53:25;;;;;;;30.75;27.13;;;20.30;99.90;;;;;;5013000;28;20057;-66
2022/05/19 08:55:59;;;;;;;35.25;26.48;;;20.50;99.90;;;;;;4989824;28;20451;-66
2022/05/19 08:58:36;;;;;;;29.60;26.52;;;20.60;99.90;;;;;;5012130;28;20072;-67
2022/05/19 09:01:10;;;;;;;28.15;24.02;;;20.60;99.90;;;;;;4992062;28;20045;-67
2022/05/19 09:03:51;;;;;;;27.85;24.35;;;20.70;99.90;;;;;;5010117;28;20042;-67
2022/05/19 09:06:38;;;;;;;31.45;25.63;;;20.80;99.90;;;;;;4996729;28;20092;-67
2022/05/19 09:09:24;;;;;;;34.25;23.98;;;20.90;99.90;;;;;;5009456;28;20077;-67
2022/05/19 09:12:00;;;;;;;26.83;23.77;;;20.90;99.90;;;;;;5026859;28;20123;-67
2022/05/19 09:14:28;;;;;;;29.33;24.70;;;20.90;99.90;;;;;;5040225;28;20092;-67
2022/05/19 09:17:01;;;;;;;28.08;25.17;;;21.10;99.90;;;;;;5019107;28;20049;-67
2022/05/19 09:19:38;;;;;;;30.63;25.88;;;21.10;99.90;;;;;;5024425;28;20078;-66
2022/05/19 09:22:17;;;;;;;28.75;24.50;;;21.30;99.90;;;;;;5018677;28;20143;-67
2022/05/19 09:24:48;;;;;;;27.17;24.33;;;21.50;99.90;;;;;;5039298;28;20401;-67
2022/05/19 09:27:16;;;;;;;28.08;24.00;;;21.50;99.90;;;;;;5006890;28;20287;-66
2022/05/19 09:29:51;;;;;;;26.48;23.63;;;21.50;99.90;;;;;;5021888;28;20053;-67
2022/05/19 09:32:34;;;;;;;26.52;23.80;;;21.60;99.90;;;;;;4997236;28;20514;-67
2022/05/19 09:35:25;;;;;;;27.95;23.52;;;21.60;99.90;;;;;;5052193;28;20052;-67
2022/05/19 09:38:13;;;;;;;24.15;21.63;;;21.80;99.90;;;;;;5029532;28;20057;-67
2022/05/19 09:40:46;;;;;;;24.35;20.77;;;21.80;99.90;;;;;;5007671;28;20262;-67
2022/05/19 09:43:32;;;;;;;22.15;19.02;;;21.90;99.90;;;;;;5013815;28;20057;-67
2022/05/19 09:46:14;;;;;;;22.73;20.23;;;21.90;99.90;;;;;;5015718;28;20095;-67
2022/05/19 09:48:44;;;;;;;25.33;21.23;;;22.10;99.90;;;;;;5038142;28;20060;-67
2022/05/19 09:51:16;;;;;;;24.83;21.98;;;22.10;99.90;;;;;;5000510;28;20105;-67
2022/05/19 09:53:48;;;;;;;24.60;22.00;;;22.20;99.90;;;;;;5034433;28;20068;-67
2022/05/19 09:56:19;;;;;;;25.65;22.95;;;22.30;99.90;;;;;;5027871;28;20053;-67
2022/05/19 09:58:48;;;;;;;25.92;22.67;;;22.30;99.90;;;;;;5034680;28;20053;-67
2022/05/19 10:01:25;;;;;;;23.27;20.77;;;22.40;99.90;;;;;;5032638;28;20091;-66
2022/05/19 10:03:59;;;;;;;25.48;22.80;;;22.50;99.90;;;;;;5035072;28;20056;-69
2022/05/19 10:06:48;;;;;;;24.25;21.70;;;22.60;99.90;;;;;;5032750;28;20056;-67
2022/05/19 10:09:18;;;;;;;22.63;20.27;;;22.70;99.90;;;;;;5039782;28;20045;-66
2022/05/19 10:11:53;;;;;;;24.13;21.20;;;22.80;99.90;;;;;;5003787;28;20132;-66
2022/05/19 10:14:26;;;;;;;24.45;21.48;;;22.80;99.90;;;;;;5017769;28;20053;-66
2022/05/19 10:17:05;;;;;;;30.67;22.92;;;22.80;99.90;;;;;;5006231;28;20049;-66
2022/05/19 10:19:55;;;;;;;26.73;23.73;;;23.00;99.90;;;;;;5017196;28;20664;-66
2022/05/19 10:22:33;;;;;;;22.00;19.58;;;23.00;99.90;;;;;;5022306;28;20056;-66
2022/05/19 10:25:06;;;;;;;23.92;21.45;;;23.00;99.90;;;;;;5023337;28;20057;-67
2022/05/19 10:31:04;;;;;;;21.88;19.55;;;23.00;99.90;;;;;;5019922;28;20261;-66
2022/05/19 10:33:39;;;;;;;22.23;19.58;;;23.20;99.90;;;;;;5020603;28;20140;-67
2022/05/19 10:36:34;;;;;;;21.38;19.30;;;23.20;99.90;;;;;;5029150;28;20045;-67
2022/05/19 10:39:39;;;;;;;24.98;22.23;;;23.40;99.90;;;;;;5029418;28;20049;-67
2022/05/19 10:42:36;;;;;;;25.20;22.60;;;23.50;99.90;;;;;;5016524;28;20052;-67
2022/05/19 10:45:08;;;;;;;23.58;21.08;;;23.60;99.90;;;;;;5025313;28;20424;-67
2022/05/19 10:47:40;;;;;;;24.38;21.92;;;23.60;99.90;;;;;;5023893;28;20108;-67
2022/05/19 10:50:32;;;;;;;23.85;21.40;;;23.60;99.90;;;;;;5025005;28;20544;-67
2022/05/19 10:53:22;;;;;;;21.35;18.95;;;23.60;99.90;;;;;;5026132;28;20041;-67
2022/05/19 10:56:06;;;;;;;23.10;20.58;;;23.60;99.90;;;;;;5036961;28;20045;-67
2022/05/19 10:58:42;;;;;;;23.48;21.02;;;23.50;99.90;;;;;;4994276;28;20041;-67
2022/05/19 11:01:31;;;;;;;22.88;18.52;;;23.80;99.90;;;;;;5010386;28;20045;-67
2022/05/19 11:04:22;;;;;;;23.52;21.08;;;23.90;99.90;;;;;;5035494;28;20119;-68
2022/05/19 11:06:53;;;;;;;21.30;18.98;;;24.10;99.90;;;;;;5016917;28;20049;-67
2022/05/19 11:09:24;;;;;;;17.65;15.85;;;24.30;99.90;;;;;;5029958;28;20046;-67
2022/05/19 11:12:32;;;;;;;19.75;17.63;;;24.40;99.90;;;;;;4977988;28;1091442;-68
2022/05/19 11:15:36;;;;;;;16.98;15.18;;;24.50;99.90;;;;;;5025711;28;20132;-67
2022/05/19 11:18:25;;;;;;;17.02;15.23;;;24.70;99.90;;;;;;5034225;28;20057;-67
2022/05/19 11:20:53;;;;;;;17.17;15.05;;;24.70;99.90;;;;;;5053465;28;20116;-67
2022/05/19 11:23:51;;;;;;;17.15;15.02;;;24.70;99.90;;;;;;5009358;28;20602;-67
2022/05/19 11:26:33;;;;;;;18.73;16.85;;;24.80;99.90;;;;;;4979750;28;20065;-68
2022/05/19 11:29:23;;;;;;;19.05;16.30;;;24.60;99.90;;;;;;5033954;28;20053;-69
2022/05/19 11:32:24;;;;;;;17.40;15.65;;;24.80;99.90;;;;;;5012444;28;20495;-67
2022/05/19 11:34:58;;;;;;;15.75;13.77;;;24.80;99.90;;;;;;5025975;28;20057;-67
2022/05/19 11:37:40;;;;;;;16.38;14.68;;;24.90;99.90;;;;;;5013380;28;20045;-67
2022/05/19 11:40:32;;;;;;;16.23;13.73;;;24.90;99.90;;;;;;5049133;28;20060;-67
2022/05/19 11:43:16;;;;;;;13.55;12.10;;;24.90;99.90;;;;;;5024784;28;20049;-68
2022/05/19 11:45:54;;;;;;;13.00;10.77;;;25.10;99.90;;;;;;5022351;28;20068;-67
2022/05/19 11:57:42;;;;;;;7.07;5.95;;;26.10;99.90;;;;;;5018466;28;20045;-67
2022/05/19 12:00:13;;;;;;;6.53;5.90;;;26.20;99.90;;;;;;5018903;28;20444;-67
2022/05/19 12:03:13;;;;;;;6.95;5.05;;;26.30;99.90;;;;;;5019079;28;20079;-67
2022/05/19 12:05:43;;;;;;;5.68;4.82;;;26.20;99.90;;;;;;5014247;28;20567;-68
2022/05/19 12:08:23;;;;;;;4.20;3.80;;;26.40;99.90;;;;;;5007321;28;20045;-67
2022/05/19 12:11:20;;;;;;;5.03;3.85;;;26.40;99.90;;;;;;5048511;28;20057;-67
2022/05/19 12:14:05;;;;;;;3.90;3.50;;;26.30;99.90;;;;;;4969687;28;20060;-67
2022/05/19 12:16:40;;;;;;;4.35;3.83;;;26.40;99.90;;;;;;4995832;28;20037;-68
2022/05/19 12:19:08;;;;;;;6.78;3.55;;;26.40;99.90;;;;;;5034602;28;20118;-67
2022/05/19 12:21:46;;;;;;;4.27;3.77;;;26.40;99.90;;;;;;5011694;28;20149;-67
2022/05/19 12:24:14;;;;;;;4.53;3.60;;;26.40;99.90;;;;;;5032301;28;20062;-67
2022/05/19 12:26:53;;;;;;;7.35;3.88;;;26.30;99.90;;;;;;5014344;28;20045;-68
2022/05/19 12:29:34;;;;;;;4.97;4.10;;;26.30;99.90;;;;;;5051982;28;20433;-67
2022/05/19 12:32:15;;;;;;;5.13;4.10;;;26.20;99.90;;;;;;5014188;28;20041;-67
2022/05/19 12:34:42;;;;;;;3.90;3.53;;;26.10;99.90;;;;;;5025392;28;20096;-67
2022/05/19 12:37:36;;;;;;;4.38;3.30;;;25.90;99.90;;;;;;5033814;28;20163;-67
2022/05/19 12:40:22;;;;;;;4.53;3.25;;;25.80;99.90;;;;;;5036821;28;20053;-67
2022/05/19 12:42:49;;;;;;;3.65;3.35;;;25.70;99.90;;;;;;5039699;28;20049;-66
2022/05/19 12:45:22;;;;;;;4.47;3.20;;;25.60;99.90;;;;;;5009188;28;20061;-67
2022/05/19 12:48:21;;;;;;;4.20;3.58;;;25.40;99.90;;;;;;5035268;28;20190;-67
2022/05/19 12:51:17;;;;;;;3.78;3.08;;;25.40;99.90;;;;;;5018647;28;20521;-66
2022/05/19 12:53:45;;;;;;;5.32;3.92;;;25.20;99.90;;;;;;5044870;28;20079;-67
2022/05/19 12:56:40;;;;;;;4.68;3.45;;;25.10;99.90;;;;;;5022771;28;20620;-67
2022/05/19 12:59:07;;;;;;;4.10;3.60;;;25.00;99.90;;;;;;5011537;28;20046;-67
2022/05/19 13:01:34;;;;;;;5.38;3.92;;;24.90;99.90;;;;;;5020589;28;20047;-67
2022/05/19 13:04:29;;;;;;;6.25;3.88;;;24.80;99.90;;;;;;4994127;28;20049;-68
2022/05/19 13:07:05;;;;;;;3.90;3.60;;;24.80;99.90;;;;;;5005702;28;20401;-67
2022/05/19 13:09:33;;;;;;;9.25;4.30;;;24.90;99.90;;;;;;5016349;28;20045;-66
2022/05/19 13:12:18;;;;;;;5.80;3.80;;;24.70;99.90;;;;;;4997459;28;20144;-67